INFORMACIÓN METAR y TAF
METAR FOR LFLB
ADDS - METARS form results

(0609 UTC 22 August 2019)
Data provider http://aviationweather.gov/metar/data/
 
METAR text: LFLB 220600Z AUTO 04006KT 9999 OVC032 18/13 Q1023 NOSIG
Conditions at: LFLB (CHAMBERY/AIX BAI, FR) observed 0600 UTC 22 August 2019
Temperature: 18.0°C (64°F)
Dewpoint: 13.0°C (55°F) [RH = 73%]
Pressure (altimeter): 30.21 inches Hg (1023.0 mb)
Winds: from the NE (40 degrees) at 7 MPH (6 knots; 3.1 m/s)
Visibility: 6 or more miles (10+ km)
Ceiling: 3200 feet AGL
Clouds: overcast cloud deck at 3200 feet AGL
Weather: no significant weather observed at this time

METAR text: LFLB 220530Z AUTO 03006KT 9999 OVC033 18/13 Q1023 NOSIG
Conditions at: LFLB (CHAMBERY/AIX BAI, FR) observed 0530 UTC 22 August 2019
Temperature: 18.0°C (64°F)
Dewpoint: 13.0°C (55°F) [RH = 73%]
Pressure (altimeter): 30.21 inches Hg (1023.0 mb)
Winds: from the NNE (30 degrees) at 7 MPH (6 knots; 3.1 m/s)
Visibility: 6 or more miles (10+ km)
Ceiling: 3300 feet AGL
Clouds: overcast cloud deck at 3300 feet AGL
Weather: no significant weather observed at this time

Forecast for: LFLB (CHAMBERY/AIX BAI, FR)
Text: TAF LFLB 220500Z 2206/2306 36008KT 9999 BKN030
Forecast period: 0600 to 0700 UTC 22 August 2019
Forecast type: FROM: standard forecast or significant change
Winds: from the N (360 degrees) at 9 MPH (8 knots; 4.1 m/s)
Visibility: 6 or more miles 10+ km)
Ceiling: 3000 feet AGL
Clouds: broken clouds at 3000 feet AGL
Weather: no significant weather forecast for this period
Text: BECMG 2207/2210 CAVOK
Forecast period: 0700 UTC 22 August 2019 to 0600 UTC 23 August 2019
Forecast type: BECOMING: Conditions expected to become as follows by 1000 UTC 22 August 2019
Winds: from the N (360 degrees) at 9 MPH (8 knots; 4.1 m/s)
Visibility: 6 or more miles 10+ km)
Ceiling: unknown
Clouds: missing
Weather: NSW  (no significant weather)
Text: PROB40
Forecast period: 0000 to 0600 UTC 23 August 2019
Forecast type: TEMPORARY: The following changes expected for less than half the time period
Visibility: missing
Ceiling: 2500 feet AGL
Clouds: broken clouds at 2500 feet AGL
Weather: no significant weather forecast for this period

 MAPA DE AEROPUERTO

 INFORMACIÓN DE PISTA
Pista 18 Longitud 6628 ft Ancho 148 ft
Elevación 769 ft Umbral desplazado 755 ft Rumbo de pista 176
Pista 36 Longitud 6628 ft Ancho 148 ft
Elevación 778 ft Umbral desplazado 460 ft Rumbo de pista 356

 FRECUANCIAS DEL AEROPUERTO
Tipo APP Nombre CHAMBERY A Frecuencia 123.7 MHZ
Tipo ATIS Nombre CHAMBERY A Frecuencia 124.575 MHZ
Tipo TWR Nombre CHAMBERY T Frecuencia 118.3 MHZ

 RADIO AYUDAS DEL AEROPUERTO



              


PayPal

©2019 Oasis Virtual Airlines
Simulando desde el 2013

Oasis Líneas Aéreas Virtuales no está relacionada con ninguna compañía real.
Se trata de un entorno virtual de simulación aérea, sin ánimo de lucro.


Visitas: 43.103

VAM v2.6.2 [MOD.]